createdAt,value
2023-02-12T00:03:40.001Z,23.31
2023-02-12T00:08:38.159Z,22.95
2023-02-12T00:13:38.293Z,22.64
2023-02-12T00:18:36.605Z,22.37
2023-02-12T00:23:35.914Z,23.54
2023-02-12T00:28:35.225Z,26.45
2023-02-12T00:33:34.362Z,28.19
2023-02-12T00:38:33.632Z,28.80
2023-02-12T00:43:32.904Z,28.18
2023-02-12T00:48:32.157Z,27.34
2023-02-12T00:53:32.426Z,26.89
2023-02-12T00:58:30.691Z,26.30
2023-02-12T01:03:30.982Z,25.87
2023-02-12T01:08:29.268Z,25.38
2023-02-12T01:13:28.565Z,24.77
2023-02-12T01:18:27.842Z,24.37
2023-02-12T01:23:28.121Z,23.90
2023-02-12T01:28:26.357Z,23.50
2023-02-12T01:33:27.550Z,23.04
2023-02-12T01:38:24.730Z,22.72
2023-02-12T01:43:23.906Z,22.36
2023-02-12T01:48:23.091Z,23.48
2023-02-12T01:53:23.301Z,26.58
2023-02-12T01:58:22.474Z,28.44
2023-02-12T02:03:20.878Z,29.31
2023-02-12T02:08:19.895Z,28.70
2023-02-12T02:13:19.070Z,27.81
2023-02-12T02:18:19.247Z,27.31
2023-02-12T02:23:18.407Z,26.66
2023-02-12T02:28:18.616Z,26.05
2023-02-12T02:33:16.816Z,25.54
2023-02-12T02:38:14.989Z,25.05
2023-02-12T02:43:15.155Z,24.49
2023-02-12T02:48:14.315Z,24.02
2023-02-12T02:53:12.491Z,23.58
2023-02-12T02:58:11.686Z,23.15
2023-02-12T03:03:13.983Z,22.68
2023-02-12T03:08:10.120Z,22.40
2023-02-12T03:13:09.304Z,22.35
2023-02-12T03:18:08.471Z,24.32
2023-02-12T03:23:08.628Z,26.75
2023-02-12T03:28:08.819Z,28.21
2023-02-12T03:33:06.984Z,28.86
2023-02-12T03:38:04.156Z,28.07
2023-02-12T03:43:04.329Z,27.40
2023-02-12T03:48:03.510Z,26.87
2023-02-12T03:53:04.823Z,26.20
2023-02-12T03:58:02.014Z,25.70
2023-02-12T04:03:02.255Z,25.10
2023-02-12T04:08:02.476Z,24.61
2023-02-12T04:13:00.610Z,24.03
2023-02-12T04:17:59.793Z,23.63
2023-02-12T04:22:57.100Z,23.15
2023-02-12T04:27:57.355Z,22.79
2023-02-12T04:32:56.587Z,22.33
2023-02-12T04:37:57.072Z,22.49
2023-02-12T04:42:56.270Z,24.87
2023-02-12T04:47:53.565Z,27.54
2023-02-12T04:52:54.640Z,29.09
2023-02-12T04:57:53.834Z,29.08
2023-02-12T05:02:52.045Z,28.27
2023-02-12T05:07:51.267Z,27.44
2023-02-12T05:12:50.458Z,26.88
2023-02-12T09:36:42.813Z,32.51
2023-02-12T10:09:32.975Z,32.52
2023-02-12T10:14:33.293Z,33.44
2023-02-12T10:19:31.786Z,33.82
2023-02-12T18:57:00.246Z,19.69
2023-02-12T19:02:00.712Z,19.96
2023-02-12T19:06:58.700Z,19.87
2023-02-12T19:11:57.772Z,20.33
2023-02-12T19:16:56.461Z,20.10
2023-02-12T19:21:56.481Z,20.06
2023-02-12T19:26:55.434Z,19.47
2023-02-12T19:31:56.142Z,19.32
2023-02-12T19:36:56.098Z,19.07
2023-02-12T19:41:53.624Z,19.13
2023-02-12T19:46:52.758Z,19.18
2023-02-12T19:51:52.200Z,19.13
2023-02-12T19:56:52.473Z,19.13
2023-02-12T20:01:51.512Z,18.91
2023-02-12T20:06:50.733Z,18.47
2023-02-12T20:11:49.236Z,18.90
2023-02-12T20:16:49.547Z,19.02
2023-02-12T20:21:51.793Z,19.31
2023-02-12T20:26:49.907Z,19.74
2023-02-12T20:31:46.441Z,19.36
2023-02-12T20:36:45.579Z,19.23
2023-02-12T20:41:45.917Z,19.28
2023-02-12T20:46:45.050Z,19.32
2023-02-12T20:51:43.307Z,19.08
2023-02-12T20:56:43.580Z,18.80
2023-02-12T21:01:42.986Z,19.21
2023-02-12T21:06:42.068Z,19.41
2023-02-12T21:11:41.363Z,19.74
2023-02-12T21:16:41.318Z,19.62
2023-02-12T21:21:39.539Z,18.84
2023-02-12T21:26:37.675Z,18.80
2023-02-12T21:31:36.153Z,18.52
2023-02-12T21:36:36.099Z,19.19
2023-02-12T21:41:37.954Z,23.78
2023-02-12T21:46:34.714Z,25.60
2023-02-12T21:51:34.674Z,28.43
2023-02-12T21:56:34.117Z,30.13
2023-02-12T22:01:32.299Z,31.06
2023-02-12T22:06:32.555Z,31.54
2023-02-12T22:11:31.871Z,31.46
2023-02-12T22:16:31.211Z,30.37
2023-02-12T22:21:29.313Z,29.64
2023-02-12T22:26:29.614Z,29.04
2023-02-12T22:31:28.979Z,28.78
2023-02-12T22:36:27.080Z,29.15
2023-02-12T22:41:27.377Z,30.31
2023-02-12T22:46:24.683Z,31.28
2023-02-12T22:51:24.975Z,32.37
2023-02-12T22:56:25.278Z,32.57
2023-02-12T23:01:24.660Z,32.30
2023-02-12T23:06:22.736Z,32.21
2023-02-12T23:11:22.028Z,31.93
2023-02-12T23:16:21.334Z,31.07
2023-02-12T23:21:19.611Z,30.62
2023-02-12T23:26:20.932Z,29.92
2023-02-12T23:31:20.344Z,29.63
2023-02-12T23:36:18.431Z,29.85
2023-02-12T23:41:18.718Z,30.16
2023-02-12T23:46:17.053Z,30.64
2023-02-12T23:51:18.139Z,30.26
2023-02-12T23:56:16.413Z,29.94
